sensor_id;sensor_type;location;lat;lon;timestamp;temperature;humidity
3644;DHT22;1838;50.742;7.158;2023-02-01T00:02:00;7.80;99.90
3644;DHT22;1838;50.742;7.158;2023-02-01T00:04:26;7.80;99.90
3644;DHT22;1838;50.742;7.158;2023-02-01T00:06:52;7.80;99.90
3644;DHT22;1838;50.742;7.158;2023-02-01T00:09:17;7.80;99.90
3644;DHT22;1838;50.742;7.158;2023-02-01T00:11:43;7.80;99.90
3644;DHT22;1838;50.742;7.158;2023-02-01T00:14:09;7.80;99.90
3644;DHT22;1838;50.742;7.158;2023-02-01T00:16:35;7.70;99.90
3644;DHT22;1838;50.742;7.158;2023-02-01T00:19:07;7.70;99.90
3644;DHT22;1838;50.742;7.158;2023-02-01T00:21:33;7.60;99.90
3644;DHT22;1838;50.742;7.158;2023-02-01T00:23:59;7.60;99.90
3644;DHT22;1838;50.742;7.158;2023-02-01T00:28:58;7.60;99.90
3644;DHT22;1838;50.742;7.158;2023-02-01T00:31:23;7.50;99.90
3644;DHT22;1838;50.742;7.158;2023-02-01T00:33:49;7.50;99.90
3644;DHT22;1838;50.742;7.158;2023-02-01T00:36:15;7.40;99.90
3644;DHT22;1838;50.742;7.158;2023-02-01T00:38:42;7.40;99.90
3644;DHT22;1838;50.742;7.158;2023-02-01T00:41:13;7.40;99.90
3644;DHT22;1838;50.742;7.158;2023-02-01T00:43:39;7.40;99.90
3644;DHT22;1838;50.742;7.158;2023-02-01T00:46:05;7.40;99.90
3644;DHT22;1838;50.742;7.158;2023-02-01T00:48:31;7.40;99.90
3644;DHT22;1838;50.742;7.158;2023-02-01T00:51:09;7.40;99.90
3644;DHT22;1838;50.742;7.158;2023-02-01T00:53:35;7.40;99.90
3644;DHT22;1838;50.742;7.158;2023-02-01T00:56:01;7.40;99.90
3644;DHT22;1838;50.742;7.158;2023-02-01T00:58:27;7.40;99.90
3644;DHT22;1838;50.742;7.158;2023-02-01T01:03:27;7.40;99.90
3644;DHT22;1838;50.742;7.158;2023-02-01T01:05:56;7.40;99.90
3644;DHT22;1838;50.742;7.158;2023-02-01T01:08:22;7.40;99.90
3644;DHT22;1838;50.742;7.158;2023-02-01T01:10:48;7.40;99.90
3644;DHT22;1838;50.742;7.158;2023-02-01T01:13:15;7.40;99.90
3644;DHT22;1838;50.742;7.158;2023-02-01T01:15:41;7.50;99.90
3644;DHT22;1838;50.742;7.158;2023-02-01T01:18:08;7.50;99.90
3644;DHT22;1838;50.742;7.158;2023-02-01T01:20:35;7.40;99.90
3644;DHT22;1838;50.742;7.158;2023-02-01T01:23:01;7.40;99.90
3644;DHT22;1838;50.742;7.158;2023-02-01T01:25:26;7.40;99.90
3644;DHT22;1838;50.742;7.158;2023-02-01T01:27:52;7.40;99.90
3644;DHT22;1838;50.742;7.158;2023-02-01T01:30:18;7.40;99.90
3644;DHT22;1838;50.742;7.158;2023-02-01T01:32:43;7.40;99.90
3644;DHT22;1838;50.742;7.158;2023-02-01T01:35:10;7.50;99.90
3644;DHT22;1838;50.742;7.158;2023-02-01T01:37:35;7.50;99.90
3644;DHT22;1838;50.742;7.158;2023-02-01T01:40:02;7.50;99.90
3644;DHT22;1838;50.742;7.158;2023-02-01T01:42:27;7.40;99.90
3644;DHT22;1838;50.742;7.158;2023-02-01T01:45:19;7.40;99.90
3644;DHT22;1838;50.742;7.158;2023-02-01T01:47:45;7.50;99.90
3644;DHT22;1838;50.742;7.158;2023-02-01T01:50:16;7.50;99.90
3644;DHT22;1838;50.742;7.158;2023-02-01T01:52:43;7.50;99.90
3644;DHT22;1838;50.742;7.158;2023-02-01T01:55:11;7.50;99.90
3644;DHT22;1838;50.742;7.158;2023-02-01T01:57:40;7.50;99.90
3644;DHT22;1838;50.742;7.158;2023-02-01T02:00:13;7.50;99.90
3644;DHT22;1838;50.742;7.158;2023-02-01T02:02:40;7.50;99.90
3644;DHT22;1838;50.742;7.158;2023-02-01T02:05:08;7.50;99.90
3644;DHT22;1838;50.742;7.158;2023-02-01T02:07:37;7.60;99.90
3644;DHT22;1838;50.742;7.158;2023-02-01T02:10:06;7.60;99.90
3644;DHT22;1838;50.742;7.158;2023-02-01T02:12:32;7.60;99.90
3644;DHT22;1838;50.742;7.158;2023-02-01T02:14:58;7.60;99.90
3644;DHT22;1838;50.742;7.158;2023-02-01T02:17:41;7.50;99.90
3644;DHT22;1838;50.742;7.158;2023-02-01T02:20:26;7.60;99.90
3644;DHT22;1838;50.742;7.158;2023-02-01T02:44:50;7.50;99.90
3644;DHT22;1838;50.742;7.158;2023-02-01T02:50:17;7.50;99.90
3644;DHT22;1838;50.742;7.158;2023-02-01T02:53:15;7.50;99.90
3644;DHT22;1838;50.742;7.158;2023-02-01T02:56:02;7.50;99.90
3644;DHT22;1838;50.742;7.158;2023-02-01T02:58:47;7.50;99.90
3644;DHT22;1838;50.742;7.158;2023-02-01T03:01:32;7.60;99.90
3644;DHT22;1838;50.742;7.158;2023-02-01T03:04:17;7.60;99.90
3644;DHT22;1838;50.742;7.158;2023-02-01T03:06:44;7.60;99.90
3644;DHT22;1838;50.742;7.158;2023-02-01T03:09:31;7.60;99.90
3644;DHT22;1838;50.742;7.158;2023-02-01T03:12:01;7.60;99.90
3644;DHT22;1838;50.742;7.158;2023-02-01T03:14:50;7.60;99.90
3644;DHT22;1838;50.742;7.158;2023-02-01T03:17:21;7.60;99.90
3644;DHT22;1838;50.742;7.158;2023-02-01T03:19:52;7.60;99.90
3644;DHT22;1838;50.742;7.158;2023-02-01T03:22:22;7.60;99.90
3644;DHT22;1838;50.742;7.158;2023-02-01T03:25:04;7.60;99.90
3644;DHT22;1838;50.742;7.158;2023-02-01T03:27:37;7.60;99.90
3644;DHT22;1838;50.742;7.158;2023-02-01T03:32:37;7.60;99.90
3644;DHT22;1838;50.742;7.158;2023-02-01T03:41:18;7.60;99.90
3644;DHT22;1838;50.742;7.158;2023-02-01T03:46:43;7.60;99.90
3644;DHT22;1838;50.742;7.158;2023-02-01T03:49:17;7.60;99.90
3644;DHT22;1838;50.742;7.158;2023-02-01T03:51:43;7.60;99.90
3644;DHT22;1838;50.742;7.158;2023-02-01T03:54:12;7.60;99.90
3644;DHT22;1838;50.742;7.158;2023-02-01T03:56:41;7.60;99.90
3644;DHT22;1838;50.742;7.158;2023-02-01T03:59:10;7.60;99.90
3644;DHT22;1838;50.742;7.158;2023-02-01T04:01:35;7.60;99.90
3644;DHT22;1838;50.742;7.158;2023-02-01T04:04:01;7.60;99.90
3644;DHT22;1838;50.742;7.158;2023-02-01T04:06:26;7.50;99.90
3644;DHT22;1838;50.742;7.158;2023-02-01T04:08:52;7.50;99.90
3644;DHT22;1838;50.742;7.158;2023-02-01T04:11:18;7.50;99.90
3644;DHT22;1838;50.742;7.158;2023-02-01T04:13:44;7.50;99.90
3644;DHT22;1838;50.742;7.158;2023-02-01T04:16:09;7.50;99.90
3644;DHT22;1838;50.742;7.158;2023-02-01T04:18:35;7.40;99.90
3644;DHT22;1838;50.742;7.158;2023-02-01T04:21:01;7.40;99.90
3644;DHT22;1838;50.742;7.158;2023-02-01T04:23:27;7.40;99.90
3644;DHT22;1838;50.742;7.158;2023-02-01T04:25:53;7.30;99.90
3644;DHT22;1838;50.742;7.158;2023-02-01T04:28:20;7.20;99.90
3644;DHT22;1838;50.742;7.158;2023-02-01T04:30:46;7.30;99.90
3644;DHT22;1838;50.742;7.158;2023-02-01T04:33:11;7.20;99.90
3644;DHT22;1838;50.742;7.158;2023-02-01T04:35:39;7.20;99.90
3644;DHT22;1838;50.742;7.158;2023-02-01T04:38:05;7.20;99.90
3644;DHT22;1838;50.742;7.158;2023-02-01T04:40:30;7.10;99.90
3644;DHT22;1838;50.742;7.158;2023-02-01T04:42:56;7.10;99.90
3644;DHT22;1838;50.742;7.158;2023-02-01T04:45:21;7.10;99.90
3644;DHT22;1838;50.742;7.158;2023-02-01T04:47:47;7.00;99.90
3644;DHT22;1838;50.742;7.158;2023-02-01T04:50:14;7.00;99.90
3644;DHT22;1838;50.742;7.158;2023-02-01T04:52:39;7.00;99.90
3644;DHT22;1838;50.742;7.158;2023-02-01T04:55:06;7.00;99.90
3644;DHT22;1838;50.742;7.158;2023-02-01T04:57:31;7.10;99.90
3644;DHT22;1838;50.742;7.158;2023-02-01T04:59:57;7.00;99.90
3644;DHT22;1838;50.742;7.158;2023-02-01T05:02:22;7.10;99.90
3644;DHT22;1838;50.742;7.158;2023-02-01T05:04:48;7.00;99.90
3644;DHT22;1838;50.742;7.158;2023-02-01T05:07:13;7.00;99.90
3644;DHT22;1838;50.742;7.158;2023-02-01T05:09:39;7.00;99.90
3644;DHT22;1838;50.742;7.158;2023-02-01T05:12:05;7.10;99.90
3644;DHT22;1838;50.742;7.158;2023-02-01T05:14:49;7.00;99.90
3644;DHT22;1838;50.742;7.158;2023-02-01T05:17:15;6.90;99.90
3644;DHT22;1838;50.742;7.158;2023-02-01T05:19:40;6.90;99.90
3644;DHT22;1838;50.742;7.158;2023-02-01T05:22:06;6.90;99.90
3644;DHT22;1838;50.742;7.158;2023-02-01T05:24:31;6.80;99.90
3644;DHT22;1838;50.742;7.158;2023-02-01T05:26:57;6.80;99.90
3644;DHT22;1838;50.742;7.158;2023-02-01T05:29:22;6.80;99.90
3644;DHT22;1838;50.742;7.158;2023-02-01T05:31:48;6.80;99.90
3644;DHT22;1838;50.742;7.158;2023-02-01T05:34:14;6.80;99.90
3644;DHT22;1838;50.742;7.158;2023-02-01T05:36:40;6.80;99.90
3644;DHT22;1838;50.742;7.158;2023-02-01T05:39:05;6.80;99.90
3644;DHT22;1838;50.742;7.158;2023-02-01T05:41:31;6.70;99.90
3644;DHT22;1838;50.742;7.158;2023-02-01T05:43:56;6.70;99.90
3644;DHT22;1838;50.742;7.158;2023-02-01T05:46:22;6.60;99.90
3644;DHT22;1838;50.742;7.158;2023-02-01T05:48:48;6.60;99.90
3644;DHT22;1838;50.742;7.158;2023-02-01T05:51:13;6.60;99.90
3644;DHT22;1838;50.742;7.158;2023-02-01T05:53:39;6.50;99.90
3644;DHT22;1838;50.742;7.158;2023-02-01T05:56:05;6.50;99.90
3644;DHT22;1838;50.742;7.158;2023-02-01T05:58:30;6.50;99.90
3644;DHT22;1838;50.742;7.158;2023-02-01T06:00:59;6.50;99.90
3644;DHT22;1838;50.742;7.158;2023-02-01T06:03:24;6.50;99.90
3644;DHT22;1838;50.742;7.158;2023-02-01T06:05:50;6.40;99.90
3644;DHT22;1838;50.742;7.158;2023-02-01T06:08:15;6.40;99.90
3644;DHT22;1838;50.742;7.158;2023-02-01T06:10:42;6.40;99.90
3644;DHT22;1838;50.742;7.158;2023-02-01T06:13:08;6.40;99.90
3644;DHT22;1838;50.742;7.158;2023-02-01T06:15:34;6.40;99.90
3644;DHT22;1838;50.742;7.158;2023-02-01T06:17:59;6.40;99.90
3644;DHT22;1838;50.742;7.158;2023-02-01T06:20:25;6.40;99.90
3644;DHT22;1838;50.742;7.158;2023-02-01T06:22:50;6.40;99.90
3644;DHT22;1838;50.742;7.158;2023-02-01T06:25:18;6.40;99.90
3644;DHT22;1838;50.742;7.158;2023-02-01T06:27:45;6.40;99.90
3644;DHT22;1838;50.742;7.158;2023-02-01T06:30:11;6.50;99.90
3644;DHT22;1838;50.742;7.158;2023-02-01T06:32:39;6.50;99.90
3644;DHT22;1838;50.742;7.158;2023-02-01T06:35:06;6.50;99.90
3644;DHT22;1838;50.742;7.158;2023-02-01T06:37:33;6.60;99.90
3644;DHT22;1838;50.742;7.158;2023-02-01T06:39:58;6.60;99.90
3644;DHT22;1838;50.742;7.158;2023-02-01T06:42:24;6.60;99.90
3644;DHT22;1838;50.742;7.158;2023-02-01T06:44:50;6.60;99.90
3644;DHT22;1838;50.742;7.158;2023-02-01T06:47:16;6.60;99.90
3644;DHT22;1838;50.742;7.158;2023-02-01T06:49:42;6.60;99.90
3644;DHT22;1838;50.742;7.158;2023-02-01T06:52:08;6.60;99.90
3644;DHT22;1838;50.742;7.158;2023-02-01T06:54:34;6.70;99.90
3644;DHT22;1838;50.742;7.158;2023-02-01T06:57:02;6.70;99.90
3644;DHT22;1838;50.742;7.158;2023-02-01T06:59:28;6.70;99.90
3644;DHT22;1838;50.742;7.158;2023-02-01T07:01:53;6.70;99.90
3644;DHT22;1838;50.742;7.158;2023-02-01T07:04:19;6.80;99.90
3644;DHT22;1838;50.742;7.158;2023-02-01T07:06:44;6.90;99.90
3644;DHT22;1838;50.742;7.158;2023-02-01T07:09:10;6.80;99.90
3644;DHT22;1838;50.742;7.158;2023-02-01T07:11:37;6.90;99.90
3644;DHT22;1838;50.742;7.158;2023-02-01T07:14:06;6.80;99.90
3644;DHT22;1838;50.742;7.158;2023-02-01T07:16:31;6.90;99.90
3644;DHT22;1838;50.742;7.158;2023-02-01T07:18:57;6.80;99.90
3644;DHT22;1838;50.742;7.158;2023-02-01T07:21:24;6.80;99.90
3644;DHT22;1838;50.742;7.158;2023-02-01T07:23:50;6.80;99.90
3644;DHT22;1838;50.742;7.158;2023-02-01T07:26:16;6.80;99.90
3644;DHT22;1838;50.742;7.158;2023-02-01T07:28:41;6.80;99.90
3644;DHT22;1838;50.742;7.158;2023-02-01T07:31:25;6.80;99.90
3644;DHT22;1838;50.742;7.158;2023-02-01T07:33:51;6.80;99.90
3644;DHT22;1838;50.742;7.158;2023-02-01T07:36:18;6.80;99.90
3644;DHT22;1838;50.742;7.158;2023-02-01T07:38:44;6.80;99.90
3644;DHT22;1838;50.742;7.158;2023-02-01T07:41:10;6.80;99.90
3644;DHT22;1838;50.742;7.158;2023-02-01T07:43:35;6.80;99.90
3644;DHT22;1838;50.742;7.158;2023-02-01T07:46:02;6.80;99.90
3644;DHT22;1838;50.742;7.158;2023-02-01T07:48:28;6.80;99.90
3644;DHT22;1838;50.742;7.158;2023-02-01T07:50:59;6.80;99.90
3644;DHT22;1838;50.742;7.158;2023-02-01T07:53:25;6.90;99.90
3644;DHT22;1838;50.742;7.158;2023-02-01T07:55:51;6.90;99.90
3644;DHT22;1838;50.742;7.158;2023-02-01T07:58:17;6.90;99.90
3644;DHT22;1838;50.742;7.158;2023-02-01T08:00:42;6.90;99.90
3644;DHT22;1838;50.742;7.158;2023-02-01T08:03:27;7.00;99.90
3644;DHT22;1838;50.742;7.158;2023-02-01T08:05:55;7.00;99.90
3644;DHT22;1838;50.742;7.158;2023-02-01T08:08:21;6.90;99.90
3644;DHT22;1838;50.742;7.158;2023-02-01T08:10:47;6.90;99.90
3644;DHT22;1838;50.742;7.158;2023-02-01T08:13:13;7.00;99.90
3644;DHT22;1838;50.742;7.158;2023-02-01T08:15:39;7.00;99.90
3644;DHT22;1838;50.742;7.158;2023-02-01T08:18:04;7.00;99.90
3644;DHT22;1838;50.742;7.158;2023-02-01T08:20:30;7.00;99.90
3644;DHT22;1838;50.742;7.158;2023-02-01T08:22:55;7.10;99.90
3644;DHT22;1838;50.742;7.158;2023-02-01T08:25:22;7.10;99.90
3644;DHT22;1838;50.742;7.158;2023-02-01T08:27:48;7.10;99.90
3644;DHT22;1838;50.742;7.158;2023-02-01T08:30:14;7.10;99.90
3644;DHT22;1838;50.742;7.158;2023-02-01T08:32:40;7.10;99.90
3644;DHT22;1838;50.742;7.158;2023-02-01T08:35:06;7.10;99.90
3644;DHT22;1838;50.742;7.158;2023-02-01T08:37:32;7.20;99.90
3644;DHT22;1838;50.742;7.158;2023-02-01T08:39:57;7.20;99.90
3644;DHT22;1838;50.742;7.158;2023-02-01T08:42:23;7.20;99.90
3644;DHT22;1838;50.742;7.158;2023-02-01T08:45:08;7.20;99.90
3644;DHT22;1838;50.742;7.158;2023-02-01T08:47:36;7.20;99.90
3644;DHT22;1838;50.742;7.158;2023-02-01T08:50:02;7.20;99.90
3644;DHT22;1838;50.742;7.158;2023-02-01T08:52:27;7.30;99.90
3644;DHT22;1838;50.742;7.158;2023-02-01T08:54:53;7.40;99.90
3644;DHT22;1838;50.742;7.158;2023-02-01T08:57:18;7.40;99.90
3644;DHT22;1838;50.742;7.158;2023-02-01T08:59:44;7.50;99.90
3644;DHT22;1838;50.742;7.158;2023-02-01T09:02:14;7.50;99.90
3644;DHT22;1838;50.742;7.158;2023-02-01T09:04:40;7.50;99.90
3644;DHT22;1838;50.742;7.158;2023-02-01T09:07:07;7.50;99.90
3644;DHT22;1838;50.742;7.158;2023-02-01T09:09:33;7.50;99.90
3644;DHT22;1838;50.742;7.158;2023-02-01T09:11:58;7.50;99.90
3644;DHT22;1838;50.742;7.158;2023-02-01T09:14:24;7.50;99.90
3644;DHT22;1838;50.742;7.158;2023-02-01T09:16:49;7.60;99.90
3644;DHT22;1838;50.742;7.158;2023-02-01T09:19:15;7.60;99.90
3644;DHT22;1838;50.742;7.158;2023-02-01T09:21:42;7.60;99.90
3644;DHT22;1838;50.742;7.158;2023-02-01T09:24:10;7.70;99.90
3644;DHT22;1838;50.742;7.158;2023-02-01T09:26:36;7.70;99.90
3644;DHT22;1838;50.742;7.158;2023-02-01T09:29:03;7.80;99.90
3644;DHT22;1838;50.742;7.158;2023-02-01T09:31:31;7.80;99.90
3644;DHT22;1838;50.742;7.158;2023-02-01T09:33:57;7.80;99.90
3644;DHT22;1838;50.742;7.158;2023-02-01T09:36:23;7.90;99.90
3644;DHT22;1838;50.742;7.158;2023-02-01T09:38:49;7.90;99.90
3644;DHT22;1838;50.742;7.158;2023-02-01T09:41:42;8.00;99.90
3644;DHT22;1838;50.742;7.158;2023-02-01T09:47:00;8.00;99.90
3644;DHT22;1838;50.742;7.158;2023-02-01T09:49:32;8.00;99.90
3644;DHT22;1838;50.742;7.158;2023-02-01T09:52:02;8.00;99.90
3644;DHT22;1838;50.742;7.158;2023-02-01T09:54:42;8.00;99.90
3644;DHT22;1838;50.742;7.158;2023-02-01T09:57:13;8.00;99.90
3644;DHT22;1838;50.742;7.158;2023-02-01T09:59:43;8.00;99.90
3644;DHT22;1838;50.742;7.158;2023-02-01T10:02:18;7.90;99.90
3644;DHT22;1838;50.742;7.158;2023-02-01T10:04:45;7.90;99.90
3644;DHT22;1838;50.742;7.158;2023-02-01T10:10:02;8.00;99.90
3644;DHT22;1838;50.742;7.158;2023-02-01T10:15:15;8.10;99.90
3644;DHT22;1838;50.742;7.158;2023-02-01T10:18:07;8.10;99.90
3644;DHT22;1838;50.742;7.158;2023-02-01T10:20:52;8.10;99.90
3644;DHT22;1838;50.742;7.158;2023-02-01T10:26:23;8.20;99.90
3644;DHT22;1838;50.742;7.158;2023-02-01T10:28:54;8.20;99.90
3644;DHT22;1838;50.742;7.158;2023-02-01T10:31:24;8.30;99.90
3644;DHT22;1838;50.742;7.158;2023-02-01T10:34:01;8.30;99.90
3644;DHT22;1838;50.742;7.158;2023-02-01T10:36:46;8.40;99.90
3644;DHT22;1838;50.742;7.158;2023-02-01T10:39:15;8.40;99.90
3644;DHT22;1838;50.742;7.158;2023-02-01T10:41:41;8.40;99.90
3644;DHT22;1838;50.742;7.158;2023-02-01T10:44:13;8.50;99.90
3644;DHT22;1838;50.742;7.158;2023-02-01T10:46:39;8.60;99.90
3644;DHT22;1838;50.742;7.158;2023-02-01T10:49:14;8.60;99.90
3644;DHT22;1838;50.742;7.158;2023-02-01T10:51:52;8.70;99.90
3644;DHT22;1838;50.742;7.158;2023-02-01T10:54:21;8.80;99.90
3644;DHT22;1838;50.742;7.158;2023-02-01T10:56:49;8.90;99.90
3644;DHT22;1838;50.742;7.158;2023-02-01T10:59:20;8.90;99.90
3644;DHT22;1838;50.742;7.158;2023-02-01T11:01:49;8.90;99.90
3644;DHT22;1838;50.742;7.158;2023-02-01T11:04:20;9.00;99.90
3644;DHT22;1838;50.742;7.158;2023-02-01T11:06:52;9.10;99.90
3644;DHT22;1838;50.742;7.158;2023-02-01T11:09:23;9.30;99.90
3644;DHT22;1838;50.742;7.158;2023-02-01T11:14:25;9.30;99.90
3644;DHT22;1838;50.742;7.158;2023-02-01T11:16:58;9.30;99.90
3644;DHT22;1838;50.742;7.158;2023-02-01T11:19:24;9.20;99.90
3644;DHT22;1838;50.742;7.158;2023-02-01T11:21:54;9.20;99.90
3644;DHT22;1838;50.742;7.158;2023-02-01T11:24:31;9.30;99.90
3644;DHT22;1838;50.742;7.158;2023-02-01T11:27:00;9.40;99.90
3644;DHT22;1838;50.742;7.158;2023-02-01T11:29:31;9.50;99.90
3644;DHT22;1838;50.742;7.158;2023-02-01T11:32:01;9.50;99.90
3644;DHT22;1838;50.742;7.158;2023-02-01T11:34:38;9.60;99.90
3644;DHT22;1838;50.742;7.158;2023-02-01T11:37:18;9.60;99.90
3644;DHT22;1838;50.742;7.158;2023-02-01T11:39:57;9.60;99.90
3644;DHT22;1838;50.742;7.158;2023-02-01T11:42:23;9.60;99.90
3644;DHT22;1838;50.742;7.158;2023-02-01T11:44:49;9.60;99.90
3644;DHT22;1838;50.742;7.158;2023-02-01T11:47:30;9.60;99.90
3644;DHT22;1838;50.742;7.158;2023-02-01T11:50:02;9.60;99.90
3644;DHT22;1838;50.742;7.158;2023-02-01T11:53:03;9.60;99.90
3644;DHT22;1838;50.742;7.158;2023-02-01T11:55:52;9.60;99.90
3644;DHT22;1838;50.742;7.158;2023-02-01T12:01:48;9.70;99.90
3644;DHT22;1838;50.742;7.158;2023-02-01T12:04:31;9.70;99.90
3644;DHT22;1838;50.742;7.158;2023-02-01T12:07:17;9.70;99.90
3644;DHT22;1838;50.742;7.158;2023-02-01T12:09:51;9.70;99.90
3644;DHT22;1838;50.742;7.158;2023-02-01T12:13:00;9.70;99.90
3644;DHT22;1838;50.742;7.158;2023-02-01T12:18:48;9.50;99.90
3644;DHT22;1838;50.742;7.158;2023-02-01T12:38:49;9.20;99.90
3644;DHT22;1838;50.742;7.158;2023-02-01T12:41:45;9.30;99.90
3644;DHT22;1838;50.742;7.158;2023-02-01T12:47:11;9.20;99.90
3644;DHT22;1838;50.742;7.158;2023-02-01T12:52:48;9.30;99.90
3644;DHT22;1838;50.742;7.158;2023-02-01T12:55:24;9.20;99.90
3644;DHT22;1838;50.742;7.158;2023-02-01T12:58:05;9.30;99.90
3644;DHT22;1838;50.742;7.158;2023-02-01T13:00:38;9.30;99.90
3644;DHT22;1838;50.742;7.158;2023-02-01T13:05:56;9.20;99.90
3644;DHT22;1838;50.742;7.158;2023-02-01T13:11:54;9.20;99.90
3644;DHT22;1838;50.742;7.158;2023-02-01T13:17:25;9.20;99.90
3644;DHT22;1838;50.742;7.158;2023-02-01T13:20:00;9.20;99.90
3644;DHT22;1838;50.742;7.158;2023-02-01T13:22:43;9.20;99.90
3644;DHT22;1838;50.742;7.158;2023-02-01T13:27:46;9.20;99.90
3644;DHT22;1838;50.742;7.158;2023-02-01T13:30:20;9.20;99.90
3644;DHT22;1838;50.742;7.158;2023-02-01T13:33:24;9.20;99.90
3644;DHT22;1838;50.742;7.158;2023-02-01T13:38:45;9.20;99.90
3644;DHT22;1838;50.742;7.158;2023-02-01T13:44:37;9.20;99.90
3644;DHT22;1838;50.742;7.158;2023-02-01T13:52:44;9.00;99.90
3644;DHT22;1838;50.742;7.158;2023-02-01T13:57:49;8.90;99.90
3644;DHT22;1838;50.742;7.158;2023-02-01T14:00:38;8.90;99.90
3644;DHT22;1838;50.742;7.158;2023-02-01T14:21:33;8.60;99.90
3644;DHT22;1838;50.742;7.158;2023-02-01T14:24:12;8.60;99.90
3644;DHT22;1838;50.742;7.158;2023-02-01T14:26:48;8.60;99.90
3644;DHT22;1838;50.742;7.158;2023-02-01T14:29:40;8.60;99.90
3644;DHT22;1838;50.742;7.158;2023-02-01T14:32:20;8.60;99.90
3644;DHT22;1838;50.742;7.158;2023-02-01T14:42:34;8.60;99.90
3644;DHT22;1838;50.742;7.158;2023-02-01T14:48:43;8.60;99.90
3644;DHT22;1838;50.742;7.158;2023-02-01T14:51:13;8.70;99.90
3644;DHT22;1838;50.742;7.158;2023-02-01T14:53:58;8.70;99.90
3644;DHT22;1838;50.742;7.158;2023-02-01T14:56:26;8.70;99.90
3644;DHT22;1838;50.742;7.158;2023-02-01T14:59:01;8.70;99.90
3644;DHT22;1838;50.742;7.158;2023-02-01T15:01:39;8.80;99.90
3644;DHT22;1838;50.742;7.158;2023-02-01T15:04:13;8.70;99.90
3644;DHT22;1838;50.742;7.158;2023-02-01T15:09:57;8.80;99.90
3644;DHT22;1838;50.742;7.158;2023-02-01T15:12:28;8.90;99.90
3644;DHT22;1838;50.742;7.158;2023-02-01T15:15:20;8.90;99.90
3644;DHT22;1838;50.742;7.158;2023-02-01T15:17:50;8.90;99.90
3644;DHT22;1838;50.742;7.158;2023-02-01T15:20:20;8.90;99.90
3644;DHT22;1838;50.742;7.158;2023-02-01T15:23:03;8.90;99.90
3644;DHT22;1838;50.742;7.158;2023-02-01T15:25:38;8.90;99.90
3644;DHT22;1838;50.742;7.158;2023-02-01T15:28:05;8.90;99.90
3644;DHT22;1838;50.742;7.158;2023-02-01T15:30:33;8.90;99.90
3644;DHT22;1838;50.742;7.158;2023-02-01T15:35:41;8.90;99.90
3644;DHT22;1838;50.742;7.158;2023-02-01T15:46:22;9.00;99.90
3644;DHT22;1838;50.742;7.158;2023-02-01T15:48:50;9.00;99.90
3644;DHT22;1838;50.742;7.158;2023-02-01T15:51:23;9.00;99.90
3644;DHT22;1838;50.742;7.158;2023-02-01T15:56:40;9.00;99.90
3644;DHT22;1838;50.742;7.158;2023-02-01T15:59:16;9.00;99.90
3644;DHT22;1838;50.742;7.158;2023-02-01T16:01:43;9.10;99.90
3644;DHT22;1838;50.742;7.158;2023-02-01T16:04:23;9.00;99.90
3644;DHT22;1838;50.742;7.158;2023-02-01T16:06:52;9.00;99.90
3644;DHT22;1838;50.742;7.158;2023-02-01T16:09:20;9.00;99.90
3644;DHT22;1838;50.742;7.158;2023-02-01T16:11:52;9.00;99.90
3644;DHT22;1838;50.742;7.158;2023-02-01T16:14:18;8.90;99.90
3644;DHT22;1838;50.742;7.158;2023-02-01T16:16:43;8.80;99.90
3644;DHT22;1838;50.742;7.158;2023-02-01T16:19:12;8.80;99.90
3644;DHT22;1838;50.742;7.158;2023-02-01T16:21:37;8.70;99.90
3644;DHT22;1838;50.742;7.158;2023-02-01T16:24:03;8.70;99.90
3644;DHT22;1838;50.742;7.158;2023-02-01T16:26:33;8.60;99.90
3644;DHT22;1838;50.742;7.158;2023-02-01T16:28:59;8.60;99.90
3644;DHT22;1838;50.742;7.158;2023-02-01T16:31:30;8.50;99.90
3644;DHT22;1838;50.742;7.158;2023-02-01T16:33:56;8.50;99.90
3644;DHT22;1838;50.742;7.158;2023-02-01T16:36:22;8.50;99.90
3644;DHT22;1838;50.742;7.158;2023-02-01T16:39:03;8.50;99.90
3644;DHT22;1838;50.742;7.158;2023-02-01T16:41:32;8.40;99.90
3644;DHT22;1838;50.742;7.158;2023-02-01T16:43:58;8.30;99.90
3644;DHT22;1838;50.742;7.158;2023-02-01T16:46:26;8.30;99.90
3644;DHT22;1838;50.742;7.158;2023-02-01T16:48:55;8.30;99.90
3644;DHT22;1838;50.742;7.158;2023-02-01T16:51:22;8.30;99.90
3644;DHT22;1838;50.742;7.158;2023-02-01T16:53:48;8.20;99.90
3644;DHT22;1838;50.742;7.158;2023-02-01T16:56:15;8.20;99.90
3644;DHT22;1838;50.742;7.158;2023-02-01T16:58:41;8.20;99.90
3644;DHT22;1838;50.742;7.158;2023-02-01T17:01:12;8.20;99.90
3644;DHT22;1838;50.742;7.158;2023-02-01T17:03:39;8.10;99.90
3644;DHT22;1838;50.742;7.158;2023-02-01T17:06:05;8.00;99.90
3644;DHT22;1838;50.742;7.158;2023-02-01T17:08:38;8.00;99.90
3644;DHT22;1838;50.742;7.158;2023-02-01T17:11:06;8.00;99.90
3644;DHT22;1838;50.742;7.158;2023-02-01T17:13:32;7.90;99.90
3644;DHT22;1838;50.742;7.158;2023-02-01T17:16:04;7.90;99.90
3644;DHT22;1838;50.742;7.158;2023-02-01T17:18:33;7.90;99.90
3644;DHT22;1838;50.742;7.158;2023-02-01T17:21:00;7.80;99.90
3644;DHT22;1838;50.742;7.158;2023-02-01T17:23:27;7.80;99.90
3644;DHT22;1838;50.742;7.158;2023-02-01T17:25:56;7.80;99.90
3644;DHT22;1838;50.742;7.158;2023-02-01T17:28:23;7.80;99.90
3644;DHT22;1838;50.742;7.158;2023-02-01T17:30:49;7.80;99.90
3644;DHT22;1838;50.742;7.158;2023-02-01T17:33:26;7.80;99.90
3644;DHT22;1838;50.742;7.158;2023-02-01T17:35:54;7.80;99.90
3644;DHT22;1838;50.742;7.158;2023-02-01T17:38:20;7.80;99.90
3644;DHT22;1838;50.742;7.158;2023-02-01T17:40:46;7.80;99.90
3644;DHT22;1838;50.742;7.158;2023-02-01T17:43:17;7.80;99.90
3644;DHT22;1838;50.742;7.158;2023-02-01T17:48:16;7.80;99.90
3644;DHT22;1838;50.742;7.158;2023-02-01T17:50:41;7.80;99.90
3644;DHT22;1838;50.742;7.158;2023-02-01T17:53:09;7.80;99.90
3644;DHT22;1838;50.742;7.158;2023-02-01T17:55:37;7.70;99.90
3644;DHT22;1838;50.742;7.158;2023-02-01T17:58:04;7.80;99.90
3644;DHT22;1838;50.742;7.158;2023-02-01T18:00:30;7.80;99.90
3644;DHT22;1838;50.742;7.158;2023-02-01T18:02:56;7.70;99.90
3644;DHT22;1838;50.742;7.158;2023-02-01T18:05:39;7.80;99.90
3644;DHT22;1838;50.742;7.158;2023-02-01T18:08:06;7.70;99.90
3644;DHT22;1838;50.742;7.158;2023-02-01T18:10:32;7.70;99.90
3644;DHT22;1838;50.742;7.158;2023-02-01T18:12:57;7.70;99.90
3644;DHT22;1838;50.742;7.158;2023-02-01T18:15:24;7.70;99.90
3644;DHT22;1838;50.742;7.158;2023-02-01T18:17:50;7.70;99.90
3644;DHT22;1838;50.742;7.158;2023-02-01T18:20:18;7.80;99.90
3644;DHT22;1838;50.742;7.158;2023-02-01T18:22:45;7.80;99.90
3644;DHT22;1838;50.742;7.158;2023-02-01T18:25:16;7.80;99.90
3644;DHT22;1838;50.742;7.158;2023-02-01T18:27:42;7.80;99.90
3644;DHT22;1838;50.742;7.158;2023-02-01T18:30:09;7.80;99.90
3644;DHT22;1838;50.742;7.158;2023-02-01T18:32:35;7.80;99.90
3644;DHT22;1838;50.742;7.158;2023-02-01T18:35:01;7.80;99.90
3644;DHT22;1838;50.742;7.158;2023-02-01T18:37:26;7.80;99.90
3644;DHT22;1838;50.742;7.158;2023-02-01T18:39:52;7.70;99.90
3644;DHT22;1838;50.742;7.158;2023-02-01T18:42:17;7.80;99.90
3644;DHT22;1838;50.742;7.158;2023-02-01T18:44:43;7.70;99.90
3644;DHT22;1838;50.742;7.158;2023-02-01T18:47:08;7.80;99.90
3644;DHT22;1838;50.742;7.158;2023-02-01T18:49:34;7.70;99.90
3644;DHT22;1838;50.742;7.158;2023-02-01T18:51:59;7.70;99.90
3644;DHT22;1838;50.742;7.158;2023-02-01T18:54:25;7.80;99.90
3644;DHT22;1838;50.742;7.158;2023-02-01T18:56:51;7.80;99.90
3644;DHT22;1838;50.742;7.158;2023-02-01T18:59:17;7.80;99.90
3644;DHT22;1838;50.742;7.158;2023-02-01T19:01:43;7.80;99.90
3644;DHT22;1838;50.742;7.158;2023-02-01T19:04:08;7.80;99.90
3644;DHT22;1838;50.742;7.158;2023-02-01T19:06:34;7.80;99.90
3644;DHT22;1838;50.742;7.158;2023-02-01T19:08:59;7.80;99.90
3644;DHT22;1838;50.742;7.158;2023-02-01T19:11:25;7.90;99.90
3644;DHT22;1838;50.742;7.158;2023-02-01T19:13:50;7.80;99.90